Time;durP1;ratioP1;P1;durP2;ratioP2;P2;SDS_P1;SDS_P2;PMS_P1;PMS_P2;Temp;Humidity;BMP_temperature;BMP_pressure;BME280_temperature;BME280_humidity;BME280_pressure;Samples;Min_cycle;Max_cycle;Signal;HPM_P1;HPM_P2
2021/05/09 00:00:46;;;;;;;4.43;3.40;;;;;;;20.40;57.04;98975.47;2061314;28;20105;-51
2021/05/09 00:01:46;;;;;;;4.17;3.43;;;;;;;20.41;57.09;98959.94;2060064;28;20022;-52
2021/05/09 00:02:47;;;;;;;3.73;3.27;;;;;;;20.41;57.07;98962.66;2058463;28;20050;-53
2021/05/09 00:03:48;;;;;;;4.70;3.43;;;;;;;20.41;57.17;98966.25;2064576;28;20375;-51
2021/05/09 00:04:48;;;;;;;4.60;3.53;;;;;;;20.41;57.17;98971.72;2064990;28;20034;-52
2021/05/09 00:05:50;;;;;;;4.77;3.90;;;;;;;20.42;57.13;98965.19;2064205;28;20022;-51
2021/05/09 00:06:52;;;;;;;7.40;4.10;;;;;;;20.42;57.19;98958.88;2061851;28;20053;-50
2021/05/09 00:07:53;;;;;;;5.13;3.38;;;;;;;20.41;57.25;98962.66;2063065;28;20031;-52
2021/05/09 00:08:53;;;;;;;4.20;3.10;;;;;;;20.41;57.11;98959.94;2063367;28;20022;-51
2021/05/09 00:09:54;;;;;;;5.90;3.47;;;;;;;20.40;57.17;98964.53;2064749;28;20026;-53
2021/05/09 00:10:54;;;;;;;4.40;3.70;;;;;;;20.39;57.01;98962.00;2062873;28;20031;-52
2021/05/09 00:11:55;;;;;;;4.60;3.63;;;;;;;20.39;57.33;98957.38;2064696;28;20045;-52
2021/05/09 00:12:55;;;;;;;6.10;3.10;;;;;;;20.39;56.99;98954.63;2064095;28;20077;-51
2021/05/09 00:13:55;;;;;;;5.97;3.70;;;;;;;20.39;57.13;98951.88;2065605;28;20480;-50
2021/05/09 00:14:56;;;;;;;3.87;3.53;;;;;;;20.39;57.26;98943.69;2064467;28;20076;-52
2021/05/09 00:15:58;;;;;;;4.87;4.10;;;;;;;20.39;57.22;98951.88;2065483;28;20085;-53
2021/05/09 00:16:58;;;;;;;4.28;3.70;;;;;;;20.40;57.01;98952.72;2065002;28;20026;-51
2021/05/09 00:17:59;;;;;;;4.50;3.57;;;;;;;20.39;57.17;98946.41;2062818;28;20084;-52
2021/05/09 00:18:59;;;;;;;3.47;3.17;;;;;;;20.38;57.18;98941.97;2063377;28;20101;-51
2021/05/09 00:20:00;;;;;;;4.30;3.33;;;;;;;20.40;57.04;98944.53;2065038;28;20048;-55
2021/05/09 00:21:00;;;;;;;3.33;3.03;;;;;;;20.39;57.23;98948.31;2063756;28;20048;-51
2021/05/09 00:22:01;;;;;;;4.20;3.50;;;;;;;20.39;57.19;98940.09;2065342;28;20026;-51
2021/05/09 00:23:01;;;;;;;6.27;3.23;;;;;;;20.39;57.17;98935.47;2064534;28;20026;-51
2021/05/09 00:24:02;;;;;;;4.10;3.50;;;;;;;20.38;57.27;98939.22;2064827;28;20026;-50
2021/05/09 00:25:04;;;;;;;4.40;3.20;;;;;;;20.38;57.28;98930.16;2063756;28;20088;-51
2021/05/09 00:26:05;;;;;;;4.30;3.75;;;;;;;20.38;57.10;98935.66;2063985;28;20591;-52
2021/05/09 00:27:05;;;;;;;4.80;2.90;;;;;;;20.39;57.09;98926.41;2065451;28;20037;-50
2021/05/09 00:28:06;;;;;;;4.40;3.63;;;;;;;20.38;57.15;98931.00;2062261;28;20017;-52
2021/05/09 00:29:06;;;;;;;4.60;3.10;;;;;;;20.38;57.15;98928.28;2064281;28;20455;-52
2021/05/09 00:30:08;;;;;;;4.63;3.43;;;;;;;20.37;57.13;98928.47;2064370;28;20338;-52
2021/05/09 00:31:08;;;;;;;5.40;3.78;;;;;;;20.38;57.34;98928.28;2064439;28;20097;-54
2021/05/09 00:32:09;;;;;;;4.73;3.27;;;;;;;20.37;57.18;98926.59;2065480;28;20073;-52
2021/05/09 00:33:09;;;;;;;4.57;3.67;;;;;;;20.36;57.26;98930.38;2061988;28;20026;-51
2021/05/09 00:34:10;;;;;;;3.60;2.83;;;;;;;20.37;57.18;98920.28;2063909;28;20225;-51
2021/05/09 00:35:11;;;;;;;4.57;3.53;;;;;;;20.37;57.20;98921.13;2065072;28;20030;-52
2021/05/09 00:36:11;;;;;;;5.00;3.57;;;;;;;20.35;57.18;98921.28;2060195;28;20022;-52
2021/05/09 00:37:12;;;;;;;4.93;3.40;;;;;;;20.37;57.13;98920.28;2065555;28;20382;-51
2021/05/09 00:38:13;;;;;;;5.70;3.60;;;;;;;20.36;57.13;98922.16;2063824;28;20038;-51
2021/05/09 00:39:13;;;;;;;3.80;3.33;;;;;;;20.36;57.19;98924.91;2064221;28;20025;-53
2021/05/09 00:40:14;;;;;;;3.43;3.13;;;;;;;20.35;56.98;98912.25;2063484;28;20058;-53
2021/05/09 00:41:14;;;;;;;4.83;3.40;;;;;;;20.35;57.10;98902.13;2061888;28;20333;-52
2021/05/09 00:42:16;;;;;;;3.90;3.40;;;;;;;20.35;57.45;98901.28;2065344;28;20335;-52
2021/05/09 00:43:17;;;;;;;3.85;3.13;;;;;;;20.35;57.20;98910.34;2060834;28;20036;-50
2021/05/09 00:44:18;;;;;;;4.28;3.50;;;;;;;20.35;57.05;98895.81;2064105;28;20087;-49
2021/05/09 00:45:18;;;;;;;4.27;3.40;;;;;;;20.35;57.20;98890.34;2063318;28;20373;-50
2021/05/09 00:46:19;;;;;;;3.70;3.10;;;;;;;20.36;57.27;98892.06;2064074;28;20449;-52
2021/05/09 00:47:19;;;;;;;3.43;3.03;;;;;;;20.34;57.18;98880.44;2065334;28;20046;-53
2021/05/09 00:48:20;;;;;;;3.90;3.23;;;;;;;20.34;57.21;98885.91;2064321;28;20028;-51
2021/05/09 00:49:20;;;;;;;4.00;2.87;;;;;;;20.35;57.12;98896.66;2063629;28;20026;-53
2021/05/09 00:50:21;;;;;;;3.77;3.30;;;;;;;20.34;56.97;98884.03;2063975;28;20417;-51
2021/05/09 00:51:21;;;;;;;3.53;3.10;;;;;;;20.35;57.35;98884.88;2063443;28;20519;-52
2021/05/09 00:52:24;;;;;;;4.03;3.63;;;;;;;20.34;57.22;98878.56;2064630;28;20050;-52
2021/05/09 00:53:26;;;;;;;3.53;3.20;;;;;;;20.34;57.26;98886.75;2062070;28;20053;-52
2021/05/09 00:54:28;;;;;;;;;;;;;;;20.30;57.05;98882.69;2065438;28;20117;-51
2021/05/09 00:55:29;;;;;;;3.78;2.92;;;;;;;20.32;57.13;98885.25;2063391;28;20380;-52
2021/05/09 00:56:31;;;;;;;4.18;3.25;;;;;;;20.31;57.28;98889.88;2059653;28;20336;-52
2021/05/09 00:57:34;;;;;;;3.80;3.17;;;;;;;20.32;57.27;98896.19;2063169;28;20066;-51
2021/05/09 00:58:36;;;;;;;4.57;3.42;;;;;;;20.33;57.25;98892.41;2060181;28;20421;-51
2021/05/09 00:59:38;;;;;;;4.63;3.58;;;;;;;20.34;57.09;98891.41;2064828;28;20444;-50
2021/05/09 01:00:39;;;;;;;3.80;3.17;;;;;;;20.34;57.27;98894.13;2064468;28;20061;-50
2021/05/09 01:01:41;;;;;;;4.27;3.23;;;;;;;20.34;57.13;98883.19;2063528;28;20046;-52
2021/05/09 01:02:43;;;;;;;4.65;3.30;;;;;;;20.33;57.06;98886.94;2059947;28;20023;-51
2021/05/09 01:03:46;;;;;;;4.13;3.28;;;;;;;20.35;57.13;98890.34;2062175;28;20459;-52
2021/05/09 01:04:47;;;;;;;3.78;3.15;;;;;;;20.34;57.25;98877.72;2063161;28;20034;-51
2021/05/09 01:05:48;;;;;;;3.70;3.30;;;;;;;20.34;57.26;98885.91;2061344;28;20030;-53
2021/05/09 01:06:48;;;;;;;5.85;3.42;;;;;;;20.34;57.13;98878.56;2055884;28;21367;-51
2021/05/09 01:07:49;;;;;;;4.77;3.40;;;;;;;20.34;57.25;98877.72;2064632;28;20062;-52
2021/05/09 01:08:49;;;;;;;3.57;2.73;;;;;;;20.34;57.15;98872.22;2062947;28;20022;-52
2021/05/09 01:09:50;;;;;;;4.20;3.43;;;;;;;20.33;57.02;98870.53;2065175;28;20077;-49
2021/05/09 01:10:50;;;;;;;5.63;3.47;;;;;;;20.33;57.04;98876.88;2060531;28;20018;-52
2021/05/09 01:11:51;;;;;;;4.87;4.03;;;;;;;20.33;57.13;98876.00;2058754;28;20027;-51
2021/05/09 01:12:51;;;;;;;4.67;3.13;;;;;;;20.33;57.11;98874.13;2056281;28;20033;-50
2021/05/09 01:13:52;;;;;;;3.87;3.40;;;;;;;20.33;57.13;98873.25;2055318;28;20409;-51
2021/05/09 01:14:52;;;;;;;3.47;3.17;;;;;;;20.33;57.10;98878.72;2057537;28;20113;-53
2021/05/09 01:15:53;;;;;;;4.07;3.40;;;;;;;20.34;57.03;98872.22;2061952;28;20038;-49
2021/05/09 01:16:53;;;;;;;5.87;3.23;;;;;;;20.33;56.79;98882.34;2064938;28;20026;-51
2021/05/09 01:17:54;;;;;;;3.83;3.43;;;;;;;20.32;57.00;98879.78;2063904;28;20022;-52
2021/05/09 01:18:55;;;;;;;4.33;3.13;;;;;;;20.34;57.06;98877.72;2063481;28;20430;-52
2021/05/09 01:20:19;;;;;;;3.50;2.92;;;;;;;20.31;57.25;98878.09;2064545;28;20026;-51
2021/05/09 01:21:19;;;;;;;4.07;3.65;;;;;;;20.32;57.15;98880.63;2054803;28;20046;-52
2021/05/09 01:22:20;;;;;;;3.50;3.20;;;;;;;20.32;57.31;98872.41;2064277;28;20074;-49
2021/05/09 01:23:20;;;;;;;4.53;3.10;;;;;;;20.32;57.25;98874.31;2064397;28;20094;-52
2021/05/09 01:24:21;;;;;;;3.67;3.13;;;;;;;20.33;57.32;98876.00;2063542;28;20026;-50
2021/05/09 01:25:21;;;;;;;4.53;3.47;;;;;;;20.32;57.15;98871.56;2065265;28;20052;-52
2021/05/09 01:26:22;;;;;;;3.63;3.00;;;;;;;20.32;57.05;98871.56;2063395;28;20036;-51
2021/05/09 01:27:22;;;;;;;4.37;3.37;;;;;;;20.33;57.10;98876.00;2064585;28;20034;-50
2021/05/09 01:28:23;;;;;;;3.77;3.00;;;;;;;20.33;57.14;98876.00;2058802;28;20302;-50
2021/05/09 01:29:23;;;;;;;4.33;3.17;;;;;;;20.34;57.01;98874.97;2062504;28;20094;-48
2021/05/09 01:30:25;;;;;;;5.33;3.07;;;;;;;20.33;57.13;98870.53;2064976;28;20467;-48
2021/05/09 01:31:25;;;;;;;3.88;3.45;;;;;;;20.33;57.14;98865.03;2054311;28;20030;-51
2021/05/09 01:32:25;;;;;;;3.13;2.73;;;;;;;20.33;57.15;98870.53;2055407;28;20035;-53
2021/05/09 01:33:26;;;;;;;5.53;3.40;;;;;;;20.32;57.07;98863.34;2064522;28;20349;-49
2021/05/09 01:34:34;;;;;;;4.97;3.30;;;;;;;20.31;57.13;98869.88;2064461;28;20065;-49
2021/05/09 01:35:35;;;;;;;4.80;3.58;;;;;;;20.31;57.17;98868.00;2063325;28;20028;-53
2021/05/09 01:36:35;;;;;;;5.43;3.40;;;;;;;20.31;57.13;98861.66;2064709;28;20033;-51
2021/05/09 01:37:35;;;;;;;4.30;3.87;;;;;;;20.31;57.10;98856.19;2060997;28;20058;-50
2021/05/09 01:38:36;;;;;;;4.30;3.13;;;;;;;20.32;57.22;98857.88;2063316;28;20030;-49
2021/05/09 01:39:36;;;;;;;4.07;3.27;;;;;;;20.31;57.16;98851.56;2062041;28;20064;-49
2021/05/09 01:40:37;;;;;;;4.27;2.93;;;;;;;20.30;57.17;98851.75;2063833;28;20352;-52
2021/05/09 01:41:37;;;;;;;4.20;3.00;;;;;;;20.30;57.31;98843.53;2063750;28;20031;-52
2021/05/09 01:42:38;;;;;;;3.97;3.57;;;;;;;20.31;57.16;98845.25;2060556;28;20686;-50
2021/05/09 01:43:38;;;;;;;3.90;3.30;;;;;;;20.31;57.12;98845.25;2063211;28;20022;-48
2021/05/09 01:44:56;;;;;;;3.73;3.07;;;;;;;20.29;56.98;98844.59;2063814;28;20034;-51
2021/05/09 01:45:57;;;;;;;5.53;3.20;;;;;;;20.29;57.23;98847.31;2058693;28;20049;-51
2021/05/09 01:46:57;;;;;;;4.40;3.47;;;;;;;20.30;57.21;98846.28;2064465;28;20331;-51
2021/05/09 01:47:58;;;;;;;4.53;3.47;;;;;;;20.30;57.06;98840.81;2060659;28;20042;-52
2021/05/09 01:48:59;;;;;;;3.90;3.60;;;;;;;20.30;57.06;98843.53;2063334;28;20037;-52
2021/05/09 01:49:59;;;;;;;3.30;3.00;;;;;;;20.30;57.13;98844.38;2064602;28;20348;-52
2021/05/09 01:50:59;;;;;;;3.97;3.40;;;;;;;20.29;57.13;98836.38;2062909;28;20421;-48
2021/05/09 01:52:00;;;;;;;4.07;3.30;;;;;;;20.31;57.17;98834.31;2061647;28;20068;-52
2021/05/09 01:53:01;;;;;;;5.73;3.50;;;;;;;20.30;57.07;98836.16;2054338;28;20133;-53
2021/05/09 01:54:02;;;;;;;3.47;3.00;;;;;;;20.30;57.13;98838.91;2056468;28;20041;-52
2021/05/09 01:55:08;;;;;;;4.20;3.80;;;;;;;20.29;57.17;98837.22;2064503;28;20069;-51
2021/05/09 01:56:08;;;;;;;5.07;3.33;;;;;;;20.29;57.23;98829.00;2063583;28;20090;-50
2021/05/09 01:57:09;;;;;;;4.80;3.30;;;;;;;20.28;57.10;98826.44;2064372;28;20133;-52
2021/05/09 01:58:09;;;;;;;5.60;3.30;;;;;;;20.29;57.02;98830.91;2063877;28;20113;-51
2021/05/09 01:59:10;;;;;;;3.33;3.03;;;;;;;20.30;57.10;98832.59;2057854;28;20055;-52
2021/05/09 02:00:16;;;;;;;3.37;3.07;;;;;;;20.29;57.06;98828.16;2055206;28;20031;-51
2021/05/09 02:01:16;;;;;;;3.75;3.30;;;;;;;20.28;57.16;98823.72;2055657;28;20027;-52
2021/05/09 02:02:17;;;;;;;3.93;3.03;;;;;;;20.29;57.08;98830.91;2055290;28;20069;-49
2021/05/09 02:03:17;;;;;;;3.57;3.20;;;;;;;20.28;57.12;98824.56;2057881;28;20054;-52
2021/05/09 02:04:18;;;;;;;3.60;3.10;;;;;;;20.28;57.05;98823.72;2064463;28;20445;-50
2021/05/09 02:05:18;;;;;;;4.03;3.40;;;;;;;20.29;57.05;98825.44;2063906;28;20038;-50
2021/05/09 02:06:19;;;;;;;4.53;3.10;;;;;;;20.29;56.95;98830.91;2064449;28;20029;-49
2021/05/09 02:07:19;;;;;;;3.60;3.30;;;;;;;20.28;57.19;98824.56;2059868;28;20333;-51
2021/05/09 02:08:22;;;;;;;3.90;3.33;;;;;;;20.28;57.04;98830.03;2064711;28;20425;-50
2021/05/09 02:09:22;;;;;;;3.83;3.30;;;;;;;20.28;57.01;98829.19;2062138;28;20448;-49
2021/05/09 02:10:23;;;;;;;3.53;3.17;;;;;;;20.29;57.14;98830.91;2063789;28;20062;-49
2021/05/09 02:11:23;;;;;;;3.23;2.93;;;;;;;20.28;57.03;98829.19;2063885;28;20114;-50
2021/05/09 02:12:24;;;;;;;3.67;2.83;;;;;;;20.28;57.21;98821.81;2062259;28;20037;-50
2021/05/09 02:13:24;;;;;;;5.90;3.30;;;;;;;20.28;56.99;98829.19;2062568;28;20468;-51
2021/05/09 02:14:25;;;;;;;3.63;3.27;;;;;;;20.28;57.03;98830.03;2063016;28;20457;-51
2021/05/09 02:15:25;;;;;;;3.97;2.90;;;;;;;20.28;56.99;98830.03;2063643;28;20054;-50
2021/05/09 02:16:26;;;;;;;4.27;3.27;;;;;;;20.28;57.07;98826.44;2063283;28;20081;-49
2021/05/09 02:17:26;;;;;;;3.93;3.00;;;;;;;20.28;57.03;98831.94;2061244;28;20042;-52
2021/05/09 02:18:28;;;;;;;3.80;3.37;;;;;;;20.28;57.03;98831.94;2064202;28;20057;-51
2021/05/09 02:19:28;;;;;;;4.50;3.17;;;;;;;20.28;56.97;98829.19;2064272;28;20037;-51
2021/05/09 02:20:28;;;;;;;4.67;3.40;;;;;;;20.28;57.04;98829.19;2063325;28;20038;-51
2021/05/09 02:21:29;;;;;;;5.23;3.13;;;;;;;20.26;57.03;98823.91;2055980;28;20178;-50
2021/05/09 02:22:29;;;;;;;3.83;3.40;;;;;;;20.28;56.94;98829.19;2055165;28;20416;-52
2021/05/09 02:23:30;;;;;;;4.93;3.00;;;;;;;20.26;57.14;98825.78;2064554;28;20026;-52
2021/05/09 02:24:30;;;;;;;4.27;3.40;;;;;;;20.26;57.17;98826.66;2062966;28;20042;-52
2021/05/09 02:25:31;;;;;;;3.83;3.37;;;;;;;20.29;57.07;98833.63;2060016;28;20030;-51
2021/05/09 02:26:31;;;;;;;3.63;2.70;;;;;;;20.29;57.05;98830.91;2055696;28;20117;-52
2021/05/09 02:27:32;;;;;;;5.03;3.70;;;;;;;20.27;57.01;98828.34;2062079;28;20030;-51
2021/05/09 02:28:32;;;;;;;3.60;3.17;;;;;;;20.27;57.17;98833.81;2064620;28;20034;-53
2021/05/09 02:29:32;;;;;;;3.10;2.70;;;;;;;20.29;57.03;98833.63;2062650;28;20057;-52
2021/05/09 02:30:34;;;;;;;4.07;3.30;;;;;;;20.28;57.02;98830.03;2064600;28;20407;-51
2021/05/09 02:31:34;;;;;;;3.22;2.90;;;;;;;20.29;57.14;98830.91;2063342;28;20030;-53
2021/05/09 02:32:35;;;;;;;3.63;3.20;;;;;;;20.28;56.99;98837.41;2062827;28;20125;-52
2021/05/09 02:33:35;;;;;;;5.10;3.70;;;;;;;20.26;57.05;98828.53;2064570;28;20066;-52
2021/05/09 02:34:36;;;;;;;3.50;2.80;;;;;;;20.27;57.01;98841.19;2062119;28;20532;-53
2021/05/09 02:35:36;;;;;;;5.80;3.50;;;;;;;20.28;57.02;98840.13;2064712;28;20029;-53
2021/05/09 02:36:36;;;;;;;4.27;3.53;;;;;;;20.26;56.84;98842.19;2062688;28;20030;-50
2021/05/09 02:37:37;;;;;;;4.33;3.70;;;;;;;20.26;56.89;98837.59;2059461;28;20441;-52
2021/05/09 02:38:37;;;;;;;3.87;2.97;;;;;;;20.25;56.96;98837.78;2064329;28;20073;-51
2021/05/09 02:39:38;;;;;;;4.27;3.17;;;;;;;20.26;56.95;98842.19;2062844;28;20105;-53
2021/05/09 02:40:38;;;;;;;3.80;3.03;;;;;;;20.26;56.92;98836.72;2069376;28;20030;-52
2021/05/09 02:41:40;;;;;;;5.33;3.30;;;;;;;20.25;57.02;98840.50;2065355;28;20076;-53
2021/05/09 02:42:43;;;;;;;6.30;3.45;;;;;;;20.25;56.97;98846.00;2064458;28;20039;-50
2021/05/09 02:43:43;;;;;;;3.55;3.10;;;;;;;20.26;56.89;98842.19;2062168;28;20038;-50
2021/05/09 02:44:44;;;;;;;4.60;3.97;;;;;;;20.25;57.10;98840.50;2064237;28;20337;-52
2021/05/09 02:45:44;;;;;;;6.30;3.47;;;;;;;20.25;56.82;98840.50;2061280;28;20093;-52
2021/05/09 02:46:45;;;;;;;5.20;3.43;;;;;;;20.25;56.98;98846.84;2065780;28;20050;-52
2021/05/09 02:47:45;;;;;;;3.93;3.13;;;;;;;20.25;57.02;98840.50;2059167;28;20046;-53
2021/05/09 02:48:46;;;;;;;4.00;3.37;;;;;;;20.25;57.04;98848.72;2057562;28;20107;-49
2021/05/09 02:49:46;;;;;;;4.30;3.10;;;;;;;20.25;56.97;98840.50;2057743;28;20039;-53
2021/05/09 02:50:47;;;;;;;3.67;3.30;;;;;;;20.25;56.90;98835.88;2061842;28;20098;-51
2021/05/09 02:51:47;;;;;;;4.33;3.37;;;;;;;20.25;57.03;98837.78;2066045;28;20121;-52
2021/05/09 02:52:47;;;;;;;3.97;3.00;;;;;;;20.25;57.02;98846.00;2064354;28;20022;-51
2021/05/09 02:53:48;;;;;;;5.20;3.70;;;;;;;20.24;57.03;98838.84;2065447;28;20034;-50
2021/05/09 02:54:49;;;;;;;4.03;3.60;;;;;;;20.25;57.10;98835.03;2066251;28;20113;-52
2021/05/09 02:55:49;;;;;;;3.30;2.70;;;;;;;20.25;57.05;98835.03;2064852;28;20263;-50
2021/05/09 02:56:49;;;;;;;4.30;3.03;;;;;;;20.23;57.12;98832.47;2064668;28;20116;-51
2021/05/09 02:57:50;;;;;;;4.67;3.20;;;;;;;20.24;57.04;98827.88;2062779;28;20031;-50
2021/05/09 02:58:50;;;;;;;3.27;2.97;;;;;;;20.23;57.07;98823.44;2064818;28;20050;-50
2021/05/09 02:59:51;;;;;;;3.97;3.57;;;;;;;20.24;56.90;98826.00;2064720;28;20033;-50
2021/05/09 03:00:51;;;;;;;4.27;3.07;;;;;;;20.24;56.92;98822.41;2065204;28;20089;-51
2021/05/09 03:01:52;;;;;;;4.70;2.90;;;;;;;20.24;57.05;98814.22;2063544;28;20113;-50
2021/05/09 03:02:52;;;;;;;6.10;2.80;;;;;;;20.22;56.91;98808.91;2066231;28;20046;-49
2021/05/09 03:03:52;;;;;;;4.10;2.90;;;;;;;20.23;57.04;98821.53;2065212;28;20120;-50
2021/05/09 03:04:53;;;;;;;5.33;3.17;;;;;;;20.23;56.98;98823.44;2065969;28;20040;-50
2021/05/09 03:05:53;;;;;;;3.73;3.10;;;;;;;20.24;56.96;98816.94;2065248;28;20026;-53
2021/05/09 03:06:54;;;;;;;4.73;3.23;;;;;;;20.23;56.83;98826.16;2065090;28;20433;-50
2021/05/09 03:07:54;;;;;;;3.33;3.03;;;;;;;20.22;57.00;98824.47;2062606;28;20438;-53
2021/05/09 03:08:55;;;;;;;5.23;2.93;;;;;;;20.23;56.95;98823.44;2063848;28;20168;-51
2021/05/09 03:09:55;;;;;;;3.63;2.87;;;;;;;20.23;56.95;98826.16;2065904;28;20034;-51
2021/05/09 03:10:55;;;;;;;3.63;3.20;;;;;;;20.22;56.99;98836.28;2064561;28;20029;-52
2021/05/09 03:11:56;;;;;;;4.17;2.90;;;;;;;20.23;56.92;98831.63;2064800;28;20031;-53
2021/05/09 03:12:57;;;;;;;4.87;3.40;;;;;;;20.23;56.93;98831.63;2066043;28;20468;-51
2021/05/09 03:13:58;;;;;;;3.75;3.22;;;;;;;20.23;56.88;98831.63;2062245;28;20050;-52
2021/05/09 03:14:58;;;;;;;4.57;3.13;;;;;;;20.23;56.98;98826.16;2065466;28;20113;-51
2021/05/09 03:16:00;;;;;;;4.33;2.90;;;;;;;20.22;56.84;98829.97;2058448;28;20034;-51
2021/05/09 03:17:00;;;;;;;3.88;2.95;;;;;;;20.23;56.88;98831.63;2063401;28;20026;-52
2021/05/09 03:18:01;;;;;;;5.60;3.20;;;;;;;20.22;56.91;98838.16;2065659;28;20113;-51
2021/05/09 03:19:01;;;;;;;4.17;2.87;;;;;;;20.22;56.98;98830.81;2055823;28;20027;-50
2021/05/09 03:20:03;;;;;;;5.13;3.47;;;;;;;20.23;56.90;98842.59;2057468;28;20038;-53
2021/05/09 03:21:04;;;;;;;;;;;;;;;20.18;56.87;98843.16;2065058;28;20071;-52
2021/05/09 03:22:04;;;;;;;3.30;2.80;;;;;;;20.19;56.91;98844.03;2065840;28;19967;-49
2021/05/09 03:23:05;;;;;;;5.00;2.90;;;;;;;20.19;56.91;98841.28;2055774;28;20025;-51
2021/05/09 03:24:05;;;;;;;3.70;2.93;;;;;;;20.20;56.90;98840.22;2056962;28;20418;-53
2021/05/09 03:25:06;;;;;;;4.37;3.10;;;;;;;20.20;57.03;98834.75;2065590;28;20067;-51
2021/05/09 03:26:07;;;;;;;4.07;2.90;;;;;;;20.21;56.94;98839.19;2063918;28;20448;-49
2021/05/09 03:27:07;;;;;;;3.83;3.20;;;;;;;20.20;56.98;98837.50;2065047;28;20351;-50
2021/05/09 03:28:08;;;;;;;3.47;2.87;;;;;;;20.21;56.93;98836.44;2065409;28;20161;-51
2021/05/09 03:29:08;;;;;;;3.87;3.40;;;;;;;20.20;56.76;98826.56;2063098;28;20026;-49
2021/05/09 03:30:09;;;;;;;4.07;3.10;;;;;;;20.21;56.98;98830.97;2065220;28;20037;-51
2021/05/09 03:31:10;;;;;;;3.88;3.22;;;;;;;20.20;57.10;98827.41;2064146;28;20030;-49
2021/05/09 03:32:10;;;;;;;2.93;2.63;;;;;;;20.19;56.95;98816.66;2061317;28;20110;-52
2021/05/09 03:33:10;;;;;;;3.33;2.80;;;;;;;20.20;57.08;98826.56;2062273;28;20030;-51
2021/05/09 03:34:11;;;;;;;3.13;2.83;;;;;;;20.20;56.93;98827.41;2064595;28;20022;-49
2021/05/09 03:35:11;;;;;;;3.37;2.90;;;;;;;20.20;57.06;98824.66;2064618;28;20053;-52
2021/05/09 03:36:12;;;;;;;4.47;3.30;;;;;;;20.21;56.94;98822.75;2062200;28;20034;-49
2021/05/09 03:37:12;;;;;;;5.30;3.30;;;;;;;20.21;56.89;98822.75;2062170;28;20481;-51
2021/05/09 03:38:13;;;;;;;4.10;3.33;;;;;;;20.20;56.91;98821.06;2058678;28;20323;-51
2021/05/09 03:39:14;;;;;;;4.87;3.23;;;;;;;20.20;57.03;98824.66;2060584;28;20113;-51
2021/05/09 03:40:15;;;;;;;4.73;3.33;;;;;;;20.20;57.04;98826.56;2063402;28;20034;-53
2021/05/09 03:41:16;;;;;;;4.50;2.80;;;;;;;20.20;56.90;98821.06;2064588;28;20030;-53
2021/05/09 03:42:16;;;;;;;4.38;3.40;;;;;;;20.19;56.71;98820.25;2065477;28;20026;-50
2021/05/09 03:43:17;;;;;;;3.87;3.13;;;;;;;20.20;56.79;98815.59;2063739;28;20026;-50
2021/05/09 03:44:17;;;;;;;5.23;3.40;;;;;;;20.20;56.89;98818.34;2065674;28;20069;-52
2021/05/09 03:45:18;;;;;;;3.37;3.00;;;;;;;20.18;56.93;98815.78;2063888;28;20026;-50
2021/05/09 03:46:19;;;;;;;4.50;2.83;;;;;;;20.20;56.99;98815.59;2063280;28;20139;-53
2021/05/09 03:47:25;;;;;;;4.70;3.50;;;;;;;20.19;56.87;98817.50;2062524;28;20080;-52
2021/05/09 03:48:26;;;;;;;4.25;3.10;;;;;;;20.19;57.00;98824.88;2063409;28;20037;-48
2021/05/09 03:49:26;;;;;;;3.53;2.87;;;;;;;20.20;56.82;98815.59;2065792;28;20028;-51
2021/05/09 03:50:26;;;;;;;3.10;2.77;;;;;;;20.20;56.86;98826.56;2065069;28;20049;-51
2021/05/09 03:51:27;;;;;;;3.30;3.00;;;;;;;20.19;56.95;98819.41;2062082;28;20125;-51
2021/05/09 03:52:27;;;;;;;3.63;3.10;;;;;;;20.19;56.94;98813.91;2065075;28;20463;-49
2021/05/09 03:53:29;;;;;;;4.00;3.20;;;;;;;20.19;56.84;98813.91;2062409;28;20026;-51
2021/05/09 03:54:30;;;;;;;3.92;3.40;;;;;;;20.19;56.82;98819.41;2073035;28;20034;-50
2021/05/09 03:55:30;;;;;;;4.37;3.43;;;;;;;20.20;56.62;98815.59;2064274;28;20034;-49
2021/05/09 03:56:31;;;;;;;5.53;3.20;;;;;;;20.18;56.87;98817.69;2064412;28;20416;-49
2021/05/09 03:57:31;;;;;;;3.63;3.33;;;;;;;20.18;56.91;98817.69;2057702;28;20106;-51
2021/05/09 03:58:32;;;;;;;3.37;2.93;;;;;;;20.20;56.82;98815.59;2060745;28;20038;-51
2021/05/09 03:59:32;;;;;;;3.30;2.97;;;;;;;20.18;56.92;98813.03;2065419;28;20030;-49
2021/05/09 04:00:32;;;;;;;3.03;2.73;;;;;;;20.17;56.99;98805.88;2064685;28;20113;-51
2021/05/09 04:01:33;;;;;;;3.10;2.40;;;;;;;20.18;56.94;98817.69;2064568;28;20483;-51
2021/05/09 04:02:33;;;;;;;3.53;2.83;;;;;;;20.18;57.08;98801.25;2065195;28;20346;-51
2021/05/09 04:03:34;;;;;;;5.17;3.00;;;;;;;20.16;56.82;98804.19;2064861;28;20052;-52
2021/05/09 04:04:34;;;;;;;3.63;3.20;;;;;;;20.17;56.85;98799.56;2065752;28;20030;-52
2021/05/09 04:05:35;;;;;;;3.37;3.07;;;;;;;20.16;56.89;98797.84;2062219;28;20425;-52
2021/05/09 04:06:35;;;;;;;3.43;3.07;;;;;;;20.17;56.77;98789.47;2062415;28;20023;-49
2021/05/09 04:07:39;;;;;;;3.70;2.73;;;;;;;20.16;57.10;98784.19;2064299;28;20014;-52
2021/05/09 04:08:39;;;;;;;5.05;2.92;;;;;;;20.16;56.82;98792.38;2057054;28;20046;-51
2021/05/09 04:09:39;;;;;;;4.07;3.10;;;;;;;20.15;56.75;98782.50;2065373;28;20030;-49
2021/05/09 04:10:40;;;;;;;4.27;3.00;;;;;;;20.15;56.83;98777.03;2065088;28;20501;-52
2021/05/09 04:11:40;;;;;;;4.50;2.97;;;;;;;20.14;56.84;98773.44;2060216;28;20033;-50
2021/05/09 04:12:41;;;;;;;3.83;3.20;;;;;;;20.15;56.87;98779.75;2064655;28;20058;-51
2021/05/09 04:13:49;;;;;;;4.20;3.17;;;;;;;20.13;56.78;98772.56;2064059;28;20023;-51
2021/05/09 04:14:49;;;;;;;3.72;3.08;;;;;;;20.16;56.84;98774.06;2057658;28;20086;-49
2021/05/09 04:15:50;;;;;;;3.10;2.80;;;;;;;20.16;56.80;98765.03;2061331;28;20033;-50
2021/05/09 04:16:50;;;;;;;4.20;3.00;;;;;;;20.14;56.80;98767.97;2059811;28;20330;-52
2021/05/09 04:17:51;;;;;;;3.30;3.00;;;;;;;20.13;56.78;98764.38;2063745;28;20028;-51
2021/05/09 04:18:51;;;;;;;4.17;3.37;;;;;;;20.15;56.87;98757.88;2060222;28;20022;-52
2021/05/09 04:19:52;;;;;;;4.03;3.17;;;;;;;20.14;56.96;98762.50;2064846;28;20096;-50
2021/05/09 04:20:52;;;;;;;4.57;2.93;;;;;;;20.14;56.80;98751.56;2059914;28;20267;-52
2021/05/09 04:21:53;;;;;;;3.23;2.80;;;;;;;20.13;56.82;98745.22;2065388;28;20027;-52
2021/05/09 04:22:53;;;;;;;4.47;3.10;;;;;;;20.13;56.85;98739.75;2063604;28;20021;-52
2021/05/09 04:23:53;;;;;;;6.13;3.13;;;;;;;20.14;56.91;98754.28;2064043;28;20053;-50
2021/05/09 04:24:54;;;;;;;3.77;2.73;;;;;;;20.13;56.93;98753.41;2065379;28;20041;-52
2021/05/09 04:25:54;;;;;;;3.30;3.00;;;;;;;20.13;56.67;98750.69;2064218;28;20550;-53
2021/05/09 04:26:55;;;;;;;4.00;2.97;;;;;;;20.15;56.84;98763.34;2065548;28;20439;-52
2021/05/09 04:27:56;;;;;;;2.83;2.63;;;;;;;20.13;57.00;98756.16;2064009;28;20412;-53
2021/05/09 04:28:56;;;;;;;3.90;2.83;;;;;;;20.13;56.89;98761.63;2055164;28;20033;-52
2021/05/09 04:29:56;;;;;;;3.63;2.93;;;;;;;20.15;56.81;98764.19;2063449;28;20448;-52
2021/05/09 04:30:57;;;;;;;2.83;2.43;;;;;;;20.14;56.76;98757.03;2062379;28;20092;-53
2021/05/09 04:31:57;;;;;;;4.07;3.13;;;;;;;20.15;56.80;98763.34;2065514;28;20360;-51
2021/05/09 04:33:03;;;;;;;4.00;3.23;;;;;;;20.13;56.79;98767.09;2064036;28;20177;-53
2021/05/09 04:34:04;;;;;;;3.65;3.00;;;;;;;20.15;56.70;98763.34;2064337;28;20133;-50
2021/05/09 04:35:05;;;;;;;3.77;2.83;;;;;;;20.14;56.72;98767.97;2064594;28;20022;-52
2021/05/09 04:36:05;;;;;;;3.73;2.97;;;;;;;20.12;56.81;98759.94;2064129;28;20129;-52
2021/05/09 04:37:06;;;;;;;4.70;3.20;;;;;;;20.14;56.67;98762.50;2065523;28;20049;-51
2021/05/09 04:38:06;;;;;;;3.50;3.00;;;;;;;20.13;56.78;98767.09;2062967;28;20507;-53
2021/05/09 04:39:07;;;;;;;3.10;2.63;;;;;;;20.13;56.79;98769.00;2061447;28;20036;-52
2021/05/09 04:40:08;;;;;;;4.33;3.00;;;;;;;20.13;56.81;98769.84;2063396;28;20128;-51
2021/05/09 04:41:09;;;;;;;3.13;2.67;;;;;;;20.13;56.68;98775.31;2064510;28;20026;-51
2021/05/09 04:42:09;;;;;;;3.90;3.20;;;;;;;20.15;56.79;98777.03;2064832;28;20417;-53
2021/05/09 04:43:12;;;;;;;3.63;3.07;;;;;;;20.13;56.63;98778.03;2060376;28;20133;-50
2021/05/09 04:44:12;;;;;;;3.00;2.70;;;;;;;20.12;56.76;98770.88;2064879;28;20040;-52
2021/05/09 04:45:13;;;;;;;4.90;3.27;;;;;;;20.15;56.72;98771.56;2063490;28;20507;-52
2021/05/09 04:46:14;;;;;;;4.50;3.30;;;;;;;20.15;56.82;98774.28;2064861;28;20141;-56
2021/05/09 04:47:14;;;;;;;4.00;3.20;;;;;;;20.16;56.89;98776.81;2064545;28;20026;-56